DAL1136 KOMA-KATL
Flight info
| Callsign | DAL1136 |
|---|---|
| Flight time | 1h 40m |
| Altitude | 35000 |
| Route | OVR SAAGS FAM HITMN NEWBB IHAVE MTHEW CHPPR1 |
| Aircraft | A320/M-SDE3FGHIRWY/LB1 |
Departure
| Time | 2026-04-19 03:46 |
|---|---|
| Airport | Eppley Airfield (KOMA) |
Arrival
| Time | 2026-04-19 05:26 |
|---|---|
| Airport | Hartsfield Jackson Atlanta International Airport (KATL) |
| Time | Latitude | Longitude | Altitude | Speed | Heading |
|---|---|---|---|---|---|
| 2026-04-19 03:31 | 41.29817 | -95.89774 | 985 ft | 0 kts | 266° |
| 2026-04-19 03:38 | 41.29818 | -95.89761 | 985 ft | 4 kts | 264° |
| 2026-04-19 03:38 | 41.29823 | -95.89726 | 993 ft | 4 kts | 250° |
| 2026-04-19 03:39 | 41.29835 | -95.89697 | 985 ft | 4 kts | 214° |
| 2026-04-19 03:39 | 41.29850 | -95.89689 | 991 ft | 1 kts | 180° |
| 2026-04-19 03:39 | 41.29853 | -95.89689 | 993 ft | 0 kts | 180° |
| 2026-04-19 03:41 | 41.29851 | -95.89689 | 991 ft | 2 kts | 180° |
| 2026-04-19 03:41 | 41.29805 | -95.89685 | 990 ft | 8 kts | 163° |
| 2026-04-19 03:41 | 41.29774 | -95.89622 | 989 ft | 11 kts | 133° |
| 2026-04-19 03:42 | 41.29679 | -95.89609 | 989 ft | 14 kts | 181° |
| 2026-04-19 03:42 | 41.29635 | -95.89541 | 989 ft | 13 kts | 90° |
| 2026-04-19 03:42 | 41.29634 | -95.89401 | 986 ft | 18 kts | 90° |
| 2026-04-19 03:42 | 41.29670 | -95.89255 | 990 ft | 16 kts | 54° |
| 2026-04-19 03:43 | 41.29656 | -95.89149 | 987 ft | 15 kts | 142° |
| 2026-04-19 03:43 | 41.29553 | -95.89051 | 988 ft | 19 kts | 144° |
| 2026-04-19 03:43 | 41.29450 | -95.88952 | 992 ft | 17 kts | 144° |
| 2026-04-19 03:43 | 41.29358 | -95.88864 | 987 ft | 15 kts | 144° |
| 2026-04-19 03:44 | 41.29277 | -95.88787 | 984 ft | 14 kts | 144° |
| 2026-04-19 03:44 | 41.29224 | -95.88718 | 992 ft | 7 kts | 103° |
| 2026-04-19 03:44 | 41.29250 | -95.88652 | 987 ft | 12 kts | 52° |
| 2026-04-19 03:44 | 41.29302 | -95.88624 | 986 ft | 8 kts | 340° |
| 2026-04-19 03:45 | 41.29319 | -95.88638 | 982 ft | 0 kts | 323° |
| 2026-04-19 03:45 | 41.29385 | -95.88705 | 986 ft | 40 kts | 322° |
| 2026-04-19 03:45 | 41.29810 | -95.89115 | 986 ft | 108 kts | 324° |
| 2026-04-19 03:45 | 41.30575 | -95.89843 | 1004 ft | 158 kts | 323° |
| 2026-04-19 03:46 | 41.31476 | -95.90686 | 1582 ft | 160 kts | 322° |
| 2026-04-19 03:46 | 41.32382 | -95.91557 | 2414 ft | 159 kts | 323° |
| 2026-04-19 03:46 | 41.33325 | -95.92374 | 2929 ft | 171 kts | 341° |
| 2026-04-19 03:46 | 41.34584 | -95.92307 | 3180 ft | 204 kts | 17° |
| 2026-04-19 03:47 | 41.35786 | -95.91042 | 3528 ft | 243 kts | 49° |
| 2026-04-19 03:47 | 41.36405 | -95.88830 | 4144 ft | 271 kts | 78° |
| 2026-04-19 03:47 | 41.36154 | -95.86277 | 4927 ft | 290 kts | 107° |
| 2026-04-19 03:47 | 41.35060 | -95.83956 | 5697 ft | 304 kts | 134° |
| 2026-04-19 03:48 | 41.33308 | -95.82378 | 6444 ft | 308 kts | 160° |
| 2026-04-19 03:48 | 41.31305 | -95.81315 | 7208 ft | 312 kts | 162° |
| 2026-04-19 03:48 | 41.29268 | -95.80255 | 7990 ft | 316 kts | 162° |
| 2026-04-19 03:48 | 41.27216 | -95.79189 | 8797 ft | 319 kts | 162° |
| 2026-04-19 03:49 | 41.25168 | -95.78124 | 9598 ft | 322 kts | 162° |
| 2026-04-19 03:49 | 41.23071 | -95.77032 | 10359 ft | 327 kts | 163° |
| 2026-04-19 03:49 | 41.20882 | -95.75893 | 10580 ft | 350 kts | 162° |
| 2026-04-19 03:49 | 41.18601 | -95.74453 | 10731 ft | 376 kts | 153° |
| 2026-04-19 03:50 | 41.16354 | -95.72474 | 10877 ft | 400 kts | 143° |
| 2026-04-19 03:50 | 41.14234 | -95.69945 | 11020 ft | 420 kts | 134° |
| 2026-04-19 03:50 | 41.12271 | -95.67009 | 11425 ft | 430 kts | 132° |
| 2026-04-19 03:50 | 41.10288 | -95.64015 | 12006 ft | 433 kts | 133° |
| 2026-04-19 03:51 | 41.08313 | -95.61051 | 12608 ft | 436 kts | 133° |
| 2026-04-19 03:51 | 41.06290 | -95.58033 | 13221 ft | 439 kts | 134° |
| 2026-04-19 03:51 | 41.04252 | -95.55005 | 13839 ft | 442 kts | 134° |
| 2026-04-19 03:51 | 41.02197 | -95.51955 | 14382 ft | 445 kts | 135° |
| 2026-04-19 03:52 | 41.00134 | -95.48888 | 14900 ft | 447 kts | 136° |
| 2026-04-19 03:52 | 40.98064 | -95.45804 | 15399 ft | 449 kts | 137° |
| 2026-04-19 03:52 | 40.95984 | -95.42708 | 15909 ft | 451 kts | 138° |
| 2026-04-19 03:52 | 40.93895 | -95.39601 | 16407 ft | 453 kts | 139° |
| 2026-04-19 03:53 | 40.91797 | -95.36483 | 16893 ft | 455 kts | 140° |
| 2026-04-19 03:53 | 40.89717 | -95.33398 | 17366 ft | 456 kts | 141° |
| 2026-04-19 03:53 | 40.87597 | -95.30261 | 17799 ft | 459 kts | 142° |
| 2026-04-19 03:53 | 40.85465 | -95.27113 | 18248 ft | 460 kts | 143° |
| 2026-04-19 03:54 | 40.83330 | -95.23962 | 18652 ft | 462 kts | 143° |
| 2026-04-19 03:54 | 40.81182 | -95.20792 | 19013 ft | 464 kts | 143° |
| 2026-04-19 03:54 | 40.79024 | -95.17609 | 19314 ft | 466 kts | 143° |
| 2026-04-19 03:54 | 40.76855 | -95.14416 | 19657 ft | 468 kts | 143° |
| 2026-04-19 03:55 | 40.74676 | -95.11210 | 19984 ft | 470 kts | 143° |
| 2026-04-19 03:55 | 40.72519 | -95.08036 | 20304 ft | 472 kts | 143° |
| 2026-04-19 03:55 | 40.70323 | -95.04813 | 20617 ft | 473 kts | 143° |
| 2026-04-19 03:55 | 40.68124 | -95.01588 | 20909 ft | 475 kts | 143° |
| 2026-04-19 03:56 | 40.65911 | -94.98346 | 21202 ft | 477 kts | 143° |
| 2026-04-19 03:56 | 40.63691 | -94.95095 | 21478 ft | 478 kts | 143° |
| 2026-04-19 03:56 | 40.61465 | -94.91836 | 21785 ft | 479 kts | 143° |
| 2026-04-19 03:56 | 40.59232 | -94.88574 | 22072 ft | 480 kts | 143° |
| 2026-04-19 03:57 | 40.56992 | -94.85304 | 22338 ft | 482 kts | 143° |
| 2026-04-19 03:57 | 40.54745 | -94.82026 | 22587 ft | 483 kts | 143° |
| 2026-04-19 03:57 | 40.52522 | -94.78783 | 22833 ft | 485 kts | 143° |
| 2026-04-19 03:57 | 40.50261 | -94.75489 | 23079 ft | 486 kts | 143° |
| 2026-04-19 03:58 | 40.47993 | -94.72190 | 23321 ft | 487 kts | 143° |
| 2026-04-19 03:58 | 40.45718 | -94.68888 | 23544 ft | 488 kts | 144° |
| 2026-04-19 03:58 | 40.43434 | -94.65582 | 23739 ft | 489 kts | 144° |
| 2026-04-19 03:58 | 40.41147 | -94.62275 | 23931 ft | 490 kts | 144° |
| 2026-04-19 03:59 | 40.38863 | -94.58964 | 24181 ft | 489 kts | 144° |
| 2026-04-19 03:59 | 40.36586 | -94.55662 | 24377 ft | 487 kts | 143° |
| 2026-04-19 03:59 | 40.34320 | -94.52378 | 24681 ft | 484 kts | 143° |
| 2026-04-19 03:59 | 40.32062 | -94.49112 | 24968 ft | 482 kts | 144° |
| 2026-04-19 04:00 | 40.29843 | -94.45913 | 25249 ft | 481 kts | 144° |
| 2026-04-19 04:00 | 40.27592 | -94.42678 | 25518 ft | 480 kts | 144° |
| 2026-04-19 04:00 | 40.25346 | -94.39454 | 25784 ft | 479 kts | 144° |
| 2026-04-19 04:00 | 40.23105 | -94.36241 | 26083 ft | 477 kts | 144° |
| 2026-04-19 04:01 | 40.20865 | -94.33035 | 26370 ft | 476 kts | 144° |
| 2026-04-19 04:01 | 40.16405 | -94.26653 | 26895 ft | 474 kts | 144° |
| 2026-04-19 04:01 | 40.14180 | -94.23472 | 27188 ft | 474 kts | 144° |
| 2026-04-19 04:02 | 40.11959 | -94.20298 | 27483 ft | 473 kts | 144° |
| 2026-04-19 04:02 | 40.09771 | -94.17178 | 27773 ft | 471 kts | 144° |
| 2026-04-19 04:02 | 40.07566 | -94.14033 | 28096 ft | 470 kts | 144° |
| 2026-04-19 04:02 | 40.05364 | -94.10893 | 28401 ft | 468 kts | 144° |
| 2026-04-19 04:03 | 40.03164 | -94.07764 | 28729 ft | 467 kts | 144° |
| 2026-04-19 04:03 | 40.00969 | -94.04646 | 29047 ft | 466 kts | 144° |
| 2026-04-19 04:03 | 39.98777 | -94.01535 | 29361 ft | 465 kts | 144° |
| 2026-04-19 04:03 | 39.96589 | -93.98433 | 29673 ft | 464 kts | 144° |
| 2026-04-19 04:04 | 39.94406 | -93.95338 | 29944 ft | 463 kts | 144° |
| 2026-04-19 04:04 | 39.92228 | -93.92254 | 30268 ft | 462 kts | 144° |
| 2026-04-19 04:04 | 39.90082 | -93.89217 | 30525 ft | 461 kts | 144° |
| 2026-04-19 04:04 | 39.87914 | -93.86154 | 30776 ft | 461 kts | 144° |
| 2026-04-19 04:05 | 39.85743 | -93.83090 | 31029 ft | 460 kts | 144° |
| 2026-04-19 04:05 | 39.83572 | -93.80032 | 31248 ft | 459 kts | 144° |
| 2026-04-19 04:05 | 39.81414 | -93.76992 | 31593 ft | 456 kts | 144° |
| 2026-04-19 04:05 | 39.79267 | -93.73971 | 31890 ft | 454 kts | 145° |
| 2026-04-19 04:06 | 39.77126 | -93.70962 | 32161 ft | 453 kts | 145° |
| 2026-04-19 04:06 | 39.74987 | -93.67962 | 32418 ft | 452 kts | 145° |
| 2026-04-19 04:06 | 39.72851 | -93.64967 | 32635 ft | 451 kts | 145° |
| 2026-04-19 04:06 | 39.70747 | -93.62015 | 32895 ft | 451 kts | 145° |
| 2026-04-19 04:07 | 39.68616 | -93.59032 | 33148 ft | 450 kts | 145° |
| 2026-04-19 04:07 | 39.66486 | -93.56056 | 33404 ft | 450 kts | 145° |
| 2026-04-19 04:07 | 39.64359 | -93.53083 | 33668 ft | 449 kts | 145° |
| 2026-04-19 04:07 | 39.62233 | -93.50115 | 33913 ft | 449 kts | 145° |
| 2026-04-19 04:08 | 39.60111 | -93.47161 | 34155 ft | 448 kts | 146° |
| 2026-04-19 04:08 | 39.57983 | -93.44200 | 34365 ft | 448 kts | 146° |
| 2026-04-19 04:08 | 39.55857 | -93.41242 | 34558 ft | 449 kts | 146° |
| 2026-04-19 04:08 | 39.53758 | -93.38319 | 34744 ft | 449 kts | 146° |
| 2026-04-19 04:09 | 39.51632 | -93.35363 | 34853 ft | 450 kts | 146° |
| 2026-04-19 04:09 | 39.49495 | -93.32400 | 35023 ft | 451 kts | 146° |
| 2026-04-19 04:09 | 39.45355 | -93.26144 | 35100 ft | 470 kts | 139° |
| 2026-04-19 04:10 | 39.41491 | -93.19270 | 35086 ft | 474 kts | 138° |
| 2026-04-19 04:10 | 39.37626 | -93.12356 | 35088 ft | 474 kts | 138° |
| 2026-04-19 04:11 | 39.33775 | -93.05502 | 35095 ft | 474 kts | 138° |
| 2026-04-19 04:11 | 39.29895 | -92.98637 | 35056 ft | 474 kts | 139° |
| 2026-04-19 04:12 | 39.26001 | -92.91771 | 35060 ft | 474 kts | 139° |
| 2026-04-19 04:12 | 39.22100 | -92.84908 | 35060 ft | 474 kts | 139° |
| 2026-04-19 04:13 | 39.18197 | -92.78050 | 35068 ft | 474 kts | 139° |
| 2026-04-19 04:13 | 39.14319 | -92.71236 | 35067 ft | 474 kts | 139° |
| 2026-04-19 04:14 | 39.10409 | -92.64395 | 35073 ft | 473 kts | 139° |
| 2026-04-19 04:14 | 39.06500 | -92.57573 | 35052 ft | 474 kts | 139° |
| 2026-04-19 04:15 | 39.02589 | -92.50751 | 35065 ft | 474 kts | 139° |
| 2026-04-19 04:15 | 38.98692 | -92.43973 | 35063 ft | 474 kts | 139° |
| 2026-04-19 04:16 | 38.94761 | -92.37154 | 35027 ft | 475 kts | 139° |
| 2026-04-19 04:16 | 38.90831 | -92.30339 | 35029 ft | 474 kts | 140° |
| 2026-04-19 04:17 | 38.86899 | -92.23532 | 34972 ft | 475 kts | 140° |
| 2026-04-19 04:17 | 38.82974 | -92.16758 | 35007 ft | 478 kts | 140° |
| 2026-04-19 04:18 | 38.78997 | -92.09923 | 35013 ft | 478 kts | 140° |
| 2026-04-19 04:18 | 38.75019 | -92.03097 | 35014 ft | 478 kts | 140° |
| 2026-04-19 04:19 | 38.71038 | -91.96270 | 35014 ft | 478 kts | 140° |
| 2026-04-19 04:19 | 38.67057 | -91.89459 | 34975 ft | 479 kts | 140° |
| 2026-04-19 04:20 | 38.63079 | -91.82673 | 34962 ft | 481 kts | 140° |
| 2026-04-19 04:20 | 38.59027 | -91.75784 | 34989 ft | 487 kts | 140° |
| 2026-04-19 04:21 | 38.54961 | -91.68856 | 34993 ft | 488 kts | 140° |
| 2026-04-19 04:21 | 38.50882 | -91.61923 | 34994 ft | 488 kts | 140° |
| 2026-04-19 04:22 | 38.46820 | -91.55058 | 35000 ft | 488 kts | 140° |
| 2026-04-19 04:22 | 38.42719 | -91.48148 | 34963 ft | 489 kts | 140° |
| 2026-04-19 04:23 | 38.38609 | -91.41227 | 34974 ft | 490 kts | 140° |
| 2026-04-19 04:23 | 38.34494 | -91.34302 | 34981 ft | 490 kts | 140° |
| 2026-04-19 04:24 | 38.30374 | -91.27392 | 34988 ft | 490 kts | 140° |
| 2026-04-19 04:24 | 38.26274 | -91.20524 | 34989 ft | 490 kts | 140° |
| 2026-04-19 04:25 | 38.22143 | -91.13620 | 34973 ft | 490 kts | 140° |
| 2026-04-19 04:25 | 38.17998 | -91.06729 | 34950 ft | 491 kts | 140° |
| 2026-04-19 04:26 | 38.13829 | -90.99798 | 34986 ft | 495 kts | 139° |
| 2026-04-19 04:26 | 38.09683 | -90.92897 | 34989 ft | 495 kts | 139° |
| 2026-04-19 04:27 | 38.05498 | -90.85952 | 34995 ft | 495 kts | 140° |
| 2026-04-19 04:27 | 38.01305 | -90.79018 | 35003 ft | 495 kts | 140° |
| 2026-04-19 04:28 | 37.97107 | -90.72089 | 34974 ft | 496 kts | 139° |
| 2026-04-19 04:28 | 37.92924 | -90.65212 | 34982 ft | 498 kts | 139° |
| 2026-04-19 04:29 | 37.88691 | -90.58258 | 34986 ft | 499 kts | 139° |
| 2026-04-19 04:29 | 37.84449 | -90.51303 | 34993 ft | 499 kts | 139° |
| 2026-04-19 04:30 | 37.80203 | -90.44352 | 34981 ft | 499 kts | 139° |
| 2026-04-19 04:30 | 37.75950 | -90.37415 | 34945 ft | 499 kts | 138° |
| 2026-04-19 04:31 | 37.71736 | -90.30552 | 35058 ft | 497 kts | 138° |
| 2026-04-19 04:31 | 37.67563 | -90.23588 | 35024 ft | 503 kts | 132° |
| 2026-04-19 04:32 | 37.64192 | -90.15742 | 35005 ft | 511 kts | 126° |
| 2026-04-19 04:32 | 37.60929 | -90.07786 | 34980 ft | 510 kts | 126° |
| 2026-04-19 04:33 | 37.57682 | -89.99893 | 34962 ft | 510 kts | 127° |
| 2026-04-19 04:33 | 37.54404 | -89.91953 | 34921 ft | 510 kts | 127° |
| 2026-04-19 04:34 | 37.51121 | -89.84026 | 34925 ft | 510 kts | 127° |
| 2026-04-19 04:34 | 37.47827 | -89.76107 | 34931 ft | 510 kts | 127° |
| 2026-04-19 04:35 | 37.44554 | -89.68253 | 34911 ft | 511 kts | 126° |
| 2026-04-19 04:35 | 37.41250 | -89.60333 | 34920 ft | 511 kts | 126° |
| 2026-04-19 04:36 | 37.37944 | -89.52417 | 34927 ft | 511 kts | 126° |
| 2026-04-19 04:36 | 37.34627 | -89.44511 | 34929 ft | 511 kts | 126° |
| 2026-04-19 04:37 | 37.31310 | -89.36610 | 34930 ft | 512 kts | 126° |
| 2026-04-19 04:37 | 37.28005 | -89.28756 | 34938 ft | 512 kts | 127° |
| 2026-04-19 04:38 | 37.24669 | -89.20860 | 34954 ft | 511 kts | 126° |
| 2026-04-19 04:38 | 37.21345 | -89.13002 | 34959 ft | 509 kts | 125° |
| 2026-04-19 04:39 | 37.18021 | -89.05189 | 35217 ft | 506 kts | 126° |
| 2026-04-19 04:39 | 37.16383 | -89.01347 | 35415 ft | 506 kts | 126° |
| 2026-04-19 04:39 | 37.14728 | -88.97460 | 35618 ft | 505 kts | 126° |
| 2026-04-19 04:40 | 37.13078 | -88.93592 | 35821 ft | 504 kts | 126° |
| 2026-04-19 04:40 | 37.11424 | -88.89722 | 36029 ft | 503 kts | 126° |
| 2026-04-19 04:40 | 37.09772 | -88.85854 | 36237 ft | 503 kts | 126° |
| 2026-04-19 04:40 | 37.08123 | -88.81999 | 36419 ft | 502 kts | 126° |
| 2026-04-19 04:41 | 37.06476 | -88.78149 | 36624 ft | 501 kts | 126° |
| 2026-04-19 04:41 | 37.04830 | -88.74303 | 36830 ft | 500 kts | 126° |
| 2026-04-19 04:41 | 37.03203 | -88.70514 | 36957 ft | 502 kts | 126° |
| 2026-04-19 04:41 | 37.01545 | -88.66666 | 36982 ft | 505 kts | 126° |
| 2026-04-19 04:42 | 36.98178 | -88.58876 | 36936 ft | 512 kts | 125° |
| 2026-04-19 04:42 | 36.94774 | -88.50994 | 36935 ft | 518 kts | 125° |
| 2026-04-19 04:43 | 36.91337 | -88.43045 | 36946 ft | 521 kts | 124° |
| 2026-04-19 04:43 | 36.87907 | -88.35123 | 36958 ft | 522 kts | 124° |
| 2026-04-19 04:44 | 36.84449 | -88.27147 | 36961 ft | 522 kts | 124° |
| 2026-04-19 04:44 | 36.80977 | -88.19186 | 36970 ft | 522 kts | 124° |
| 2026-04-19 04:45 | 36.77492 | -88.11234 | 36913 ft | 523 kts | 124° |
| 2026-04-19 04:45 | 36.74024 | -88.03327 | 36916 ft | 523 kts | 124° |
| 2026-04-19 04:46 | 36.70536 | -87.95370 | 36890 ft | 524 kts | 123° |
| 2026-04-19 04:46 | 36.67035 | -87.87407 | 36899 ft | 524 kts | 123° |
| 2026-04-19 04:47 | 36.63523 | -87.79440 | 36906 ft | 525 kts | 123° |
| 2026-04-19 04:47 | 36.60002 | -87.71484 | 36938 ft | 525 kts | 123° |
| 2026-04-19 04:48 | 36.56497 | -87.63567 | 36948 ft | 526 kts | 123° |
| 2026-04-19 04:48 | 36.52954 | -87.55607 | 36940 ft | 526 kts | 124° |
| 2026-04-19 04:49 | 36.49412 | -87.47641 | 36952 ft | 526 kts | 124° |
| 2026-04-19 04:49 | 36.45865 | -87.39692 | 36909 ft | 527 kts | 124° |
| 2026-04-19 04:50 | 36.42319 | -87.31782 | 36908 ft | 528 kts | 124° |
| 2026-04-19 04:50 | 36.38737 | -87.23800 | 36922 ft | 530 kts | 124° |
| 2026-04-19 04:51 | 36.35146 | -87.15811 | 36929 ft | 531 kts | 124° |
| 2026-04-19 04:51 | 36.31538 | -87.07805 | 36933 ft | 532 kts | 124° |
| 2026-04-19 04:52 | 36.27948 | -86.99843 | 36951 ft | 533 kts | 124° |
| 2026-04-19 04:52 | 36.24326 | -86.91829 | 36946 ft | 533 kts | 124° |
| 2026-04-19 04:53 | 36.20690 | -86.83845 | 36934 ft | 533 kts | 125° |
| 2026-04-19 04:53 | 36.17033 | -86.75870 | 36976 ft | 531 kts | 127° |
| 2026-04-19 04:54 | 36.12524 | -86.68845 | 36987 ft | 514 kts | 145° |
| 2026-04-19 04:54 | 36.06904 | -86.63697 | 36993 ft | 494 kts | 160° |
| 2026-04-19 04:55 | 36.00961 | -86.59525 | 37016 ft | 495 kts | 160° |
| 2026-04-19 04:55 | 35.94983 | -86.55318 | 36993 ft | 495 kts | 159° |
| 2026-04-19 04:56 | 35.89001 | -86.51101 | 36985 ft | 495 kts | 159° |
| 2026-04-19 04:56 | 35.83014 | -86.46899 | 37009 ft | 495 kts | 160° |
| 2026-04-19 04:57 | 35.77067 | -86.42739 | 37022 ft | 495 kts | 160° |
| 2026-04-19 04:57 | 35.71073 | -86.38537 | 37025 ft | 496 kts | 159° |
| 2026-04-19 04:58 | 35.66107 | -86.35011 | 37006 ft | 496 kts | 159° |
| 2026-04-19 04:58 | 35.60129 | -86.30756 | 37014 ft | 496 kts | 159° |
| 2026-04-19 04:59 | 35.53183 | -86.25830 | 37019 ft | 496 kts | 159° |
| 2026-04-19 04:59 | 35.47192 | -86.21602 | 37040 ft | 496 kts | 159° |
| 2026-04-19 05:00 | 35.41332 | -86.17037 | 36996 ft | 508 kts | 150° |
| 2026-04-19 05:00 | 35.36721 | -86.12545 | 37002 ft | 509 kts | 150° |
| 2026-04-19 05:01 | 35.30256 | -86.06275 | 37028 ft | 510 kts | 150° |
| 2026-04-19 05:01 | 35.25589 | -86.01771 | 37040 ft | 511 kts | 150° |
| 2026-04-19 05:02 | 35.20033 | -85.96436 | 37049 ft | 511 kts | 150° |
| 2026-04-19 05:02 | 35.14430 | -85.91084 | 36971 ft | 511 kts | 150° |
| 2026-04-19 05:03 | 35.08811 | -85.85727 | 36985 ft | 513 kts | 151° |
| 2026-04-19 05:03 | 35.03191 | -85.80359 | 36985 ft | 513 kts | 150° |
| 2026-04-19 05:04 | 34.97551 | -85.74992 | 36718 ft | 515 kts | 151° |
| 2026-04-19 05:04 | 34.94763 | -85.72346 | 36459 ft | 514 kts | 150° |
| 2026-04-19 05:04 | 34.91939 | -85.69666 | 36213 ft | 514 kts | 150° |
| 2026-04-19 05:05 | 34.89115 | -85.66993 | 35945 ft | 515 kts | 151° |
| 2026-04-19 05:05 | 34.86279 | -85.64312 | 35696 ft | 516 kts | 150° |
| 2026-04-19 05:05 | 34.83447 | -85.61632 | 35453 ft | 516 kts | 150° |
| 2026-04-19 05:05 | 34.80609 | -85.58948 | 35214 ft | 517 kts | 150° |
| 2026-04-19 05:06 | 34.77772 | -85.56263 | 34975 ft | 517 kts | 150° |
| 2026-04-19 05:06 | 34.74939 | -85.53584 | 34751 ft | 516 kts | 150° |
| 2026-04-19 05:06 | 34.72135 | -85.50933 | 33943 ft | 519 kts | 149° |
| 2026-04-19 05:06 | 34.69268 | -85.48231 | 32876 ft | 522 kts | 149° |
| 2026-04-19 05:07 | 34.66395 | -85.45524 | 31802 ft | 524 kts | 149° |
| 2026-04-19 05:07 | 34.63531 | -85.42821 | 30917 ft | 520 kts | 148° |
| 2026-04-19 05:07 | 34.60674 | -85.40128 | 29812 ft | 520 kts | 148° |
| 2026-04-19 05:07 | 34.57831 | -85.37450 | 28264 ft | 514 kts | 148° |
| 2026-04-19 05:08 | 34.55010 | -85.34795 | 26752 ft | 514 kts | 147° |
| 2026-04-19 05:08 | 34.49344 | -85.29486 | 24191 ft | 514 kts | 147° |
| 2026-04-19 05:08 | 34.46569 | -85.26883 | 23283 ft | 506 kts | 147° |
| 2026-04-19 05:09 | 34.43814 | -85.24295 | 22384 ft | 498 kts | 146° |
| 2026-04-19 05:09 | 34.41092 | -85.21744 | 21534 ft | 491 kts | 146° |
| 2026-04-19 05:09 | 34.38411 | -85.19237 | 20721 ft | 484 kts | 146° |
| 2026-04-19 05:09 | 34.35760 | -85.16763 | 19914 ft | 478 kts | 146° |
| 2026-04-19 05:10 | 34.33142 | -85.14323 | 19154 ft | 472 kts | 146° |
| 2026-04-19 05:10 | 34.30553 | -85.11912 | 18433 ft | 467 kts | 146° |
| 2026-04-19 05:10 | 34.28001 | -85.09533 | 17648 ft | 461 kts | 145° |
| 2026-04-19 05:10 | 34.25473 | -85.07179 | 16877 ft | 456 kts | 145° |
| 2026-04-19 05:11 | 34.23007 | -85.04885 | 16157 ft | 451 kts | 145° |
| 2026-04-19 05:11 | 34.20531 | -85.02587 | 15442 ft | 447 kts | 145° |
| 2026-04-19 05:11 | 34.18074 | -85.00307 | 14752 ft | 443 kts | 144° |
| 2026-04-19 05:11 | 34.15640 | -84.98045 | 14088 ft | 439 kts | 144° |
| 2026-04-19 05:12 | 34.13234 | -84.95806 | 13397 ft | 435 kts | 144° |
| 2026-04-19 05:12 | 34.10862 | -84.93575 | 12701 ft | 430 kts | 144° |
| 2026-04-19 05:12 | 34.08531 | -84.91366 | 12428 ft | 423 kts | 143° |
| 2026-04-19 05:12 | 34.06221 | -84.89172 | 12249 ft | 421 kts | 143° |
| 2026-04-19 05:13 | 34.03957 | -84.87020 | 12025 ft | 419 kts | 143° |
| 2026-04-19 05:13 | 34.01669 | -84.84849 | 11800 ft | 418 kts | 143° |
| 2026-04-19 05:13 | 33.99389 | -84.82691 | 11577 ft | 416 kts | 144° |
| 2026-04-19 05:13 | 33.97145 | -84.80576 | 11388 ft | 401 kts | 144° |
| 2026-04-19 05:14 | 33.95002 | -84.78555 | 11265 ft | 383 kts | 144° |
| 2026-04-19 05:14 | 33.92947 | -84.76617 | 11148 ft | 367 kts | 144° |
| 2026-04-19 05:14 | 33.90981 | -84.74763 | 11024 ft | 352 kts | 144° |
| 2026-04-19 05:14 | 33.89095 | -84.72986 | 10905 ft | 338 kts | 144° |
| 2026-04-19 05:15 | 33.87277 | -84.71273 | 10786 ft | 326 kts | 144° |
| 2026-04-19 05:15 | 33.85544 | -84.69642 | 10656 ft | 315 kts | 144° |
| 2026-04-19 05:15 | 33.83836 | -84.68035 | 10411 ft | 309 kts | 144° |
| 2026-04-19 05:15 | 33.82159 | -84.66460 | 10183 ft | 304 kts | 143° |
| 2026-04-19 05:16 | 33.80487 | -84.64894 | 10043 ft | 304 kts | 143° |
| 2026-04-19 05:16 | 33.78821 | -84.63337 | 9899 ft | 303 kts | 143° |
| 2026-04-19 05:16 | 33.77161 | -84.61784 | 9739 ft | 302 kts | 144° |
| 2026-04-19 05:16 | 33.75526 | -84.60204 | 9598 ft | 301 kts | 137° |
| 2026-04-19 05:17 | 33.74228 | -84.58236 | 9447 ft | 302 kts | 120° |
| 2026-04-19 05:17 | 33.73471 | -84.55929 | 9307 ft | 302 kts | 103° |
| 2026-04-19 05:17 | 33.73285 | -84.53430 | 9164 ft | 301 kts | 90° |
| 2026-04-19 05:17 | 33.73108 | -84.50934 | 9011 ft | 300 kts | 102° |
| 2026-04-19 05:18 | 33.72626 | -84.48347 | 8866 ft | 337 kts | 104° |
| 2026-04-19 05:18 | 33.72054 | -84.45473 | 8720 ft | 370 kts | 104° |
| 2026-04-19 05:18 | 33.71449 | -84.42422 | 8570 ft | 379 kts | 104° |
| 2026-04-19 05:18 | 33.71088 | -84.39282 | 8420 ft | 380 kts | 95° |
| 2026-04-19 05:19 | 33.70971 | -84.36118 | 8218 ft | 377 kts | 92° |
| 2026-04-19 05:19 | 33.70966 | -84.33065 | 8004 ft | 352 kts | 85° |
| 2026-04-19 05:19 | 33.71351 | -84.30307 | 7725 ft | 328 kts | 79° |
| 2026-04-19 05:19 | 33.71802 | -84.27716 | 7428 ft | 307 kts | 79° |
| 2026-04-19 05:20 | 33.72264 | -84.25288 | 7141 ft | 292 kts | 78° |
| 2026-04-19 05:20 | 33.72750 | -84.22931 | 6758 ft | 288 kts | 77° |
| 2026-04-19 05:20 | 33.73176 | -84.20604 | 6527 ft | 285 kts | 89° |
| 2026-04-19 05:20 | 33.72858 | -84.18310 | 6156 ft | 274 kts | 120° |
| 2026-04-19 05:21 | 33.71718 | -84.16621 | 5830 ft | 255 kts | 145° |
| 2026-04-19 05:21 | 33.70166 | -84.15695 | 5513 ft | 246 kts | 168° |
| 2026-04-19 05:21 | 33.68489 | -84.15584 | 5214 ft | 240 kts | 189° |
| 2026-04-19 05:21 | 33.66941 | -84.16255 | 4928 ft | 237 kts | 211° |
| 2026-04-19 05:22 | 33.65742 | -84.17580 | 4630 ft | 235 kts | 233° |
| 2026-04-19 05:22 | 33.65063 | -84.19323 | 4347 ft | 235 kts | 254° |
| 2026-04-19 05:22 | 33.64837 | -84.21260 | 4065 ft | 233 kts | 255° |
| 2026-04-19 05:22 | 33.64329 | -84.23065 | 3789 ft | 226 kts | 249° |
| 2026-04-19 05:23 | 33.63917 | -84.24909 | 3377 ft | 231 kts | 258° |
| 2026-04-19 05:23 | 33.63741 | -84.26785 | 3052 ft | 220 kts | 263° |
| 2026-04-19 05:23 | 33.63626 | -84.28577 | 2696 ft | 212 kts | 263° |
| 2026-04-19 05:23 | 33.63546 | -84.30296 | 2457 ft | 200 kts | 265° |
| 2026-04-19 05:24 | 33.63506 | -84.31925 | 2163 ft | 186 kts | 266° |
| 2026-04-19 05:24 | 33.63484 | -84.33364 | 2039 ft | 160 kts | 266° |
| 2026-04-19 05:24 | 33.63486 | -84.34606 | 1954 ft | 144 kts | 268° |
| 2026-04-19 05:24 | 33.63503 | -84.35780 | 1781 ft | 139 kts | 268° |
| 2026-04-19 05:25 | 33.63487 | -84.36926 | 1636 ft | 137 kts | 267° |
| 2026-04-19 05:25 | 33.63482 | -84.38068 | 1517 ft | 138 kts | 269° |
| 2026-04-19 05:25 | 33.63478 | -84.39223 | 1343 ft | 138 kts | 268° |
| 2026-04-19 05:25 | 33.63472 | -84.40371 | 1155 ft | 138 kts | 270° |
| 2026-04-19 05:26 | 33.63472 | -84.41555 | 1041 ft | 141 kts | 270° |
| 2026-04-19 05:26 | 33.63471 | -84.42508 | 1036 ft | 77 kts | 270° |
| 2026-04-19 05:26 | 33.63479 | -84.43005 | 1034 ft | 26 kts | 277° |
| 2026-04-19 05:26 | 33.63562 | -84.43157 | 1034 ft | 14 kts | 308° |
| 2026-04-19 05:27 | 33.63585 | -84.43255 | 1034 ft | 11 kts | 270° |
| 2026-04-19 05:27 | 33.63627 | -84.43313 | 1035 ft | 9 kts | 347° |
| 2026-04-19 05:27 | 33.63668 | -84.43344 | 1035 ft | 6 kts | 287° |
| 2026-04-19 05:27 | 33.63703 | -84.43397 | 1035 ft | 11 kts | 338° |
| 2026-04-19 05:28 | 33.63797 | -84.43394 | 1035 ft | 14 kts | 1° |
| 2026-04-19 05:28 | 33.63886 | -84.43393 | 1035 ft | 12 kts | 359° |
| 2026-04-19 05:28 | 33.63963 | -84.43394 | 1035 ft | 10 kts | 359° |
| 2026-04-19 05:28 | 33.64028 | -84.43394 | 1035 ft | 8 kts | 0° |
| 2026-04-19 05:29 | 33.64081 | -84.43394 | 1035 ft | 7 kts | 360° |
| 2026-04-19 05:29 | 33.64135 | -84.43394 | 1035 ft | 8 kts | 360° |
| 2026-04-19 05:29 | 33.64173 | -84.43430 | 1035 ft | 6 kts | 297° |
| 2026-04-19 05:29 | 33.64177 | -84.43477 | 1035 ft | 5 kts | 269° |
| 2026-04-19 05:30 | 33.64176 | -84.43516 | 1035 ft | 4 kts | 267° |
| 2026-04-19 05:30 | 33.64177 | -84.43539 | 1035 ft | 1 kts | 271° |
| 2026-04-19 05:30 | 33.64177 | -84.43541 | 1035 ft | 0 kts | 271° |